Portada
METAR-TAF:

METAR-TAF

Aeroports :

Yangon, Myanmar

latitud: 16-46N, longitud: 096-10E, altitud: 14 m

Observació

L'informe es va fer fa 23 minuts, a les 03:30 UTC
Vent 5 kt del Nord/Nord-Est
Temperatura 30°C
Humitat 75%
Pressió 1015 hPa
Visibilitat: 8000 m

METAR: VYYY 210330Z 03005KT 8000 NSC 30/25 Q1015 NOSIG

Hora: 10:23 (03:53 UTC)

Pronòstic

L'informe es va fer fa 4 hores i 53 minuts, a les 23:00 UTC
Pronòstic vàlid del 21 a les 00 UTC al 21 a les 24 UTC
Vent 6 kt del Est/Nord-Est
Visibilitat: 8000 m
Núvols disperses a una alçada de 2000 ft
Evolucionant progressivament
l' 21 a les 00 UTC al 21 a les 02 UTC
Visibilitat: 4000 m
boirina
Temporalment
l' 21 a les 06 UTC al 21 a les 12 UTC
Visibilitat: 6000 m
calitja

TAF: VYYY 202300Z 2100/2124 06006KT 8000 SCT020 BECMG 2100/2102 4000 BR TEMPO 2106/2112 6000 HZ

Observacions i pronòstics meteorològics de més de 4000 aeroports (METAR i TAF).

Les estacions disponibles són els punts grocs i vermells al mapa.

Posi el ratolí al punt desitjat per veure el nom de l'estació.

Feu clic per veure les observacions i els pronòstics meteorològics.

Per canviar el mapa: feu clic els botons verds amb una creu de color negre per apropar; al botó verd amb un guió per allunyar la imatge; o en les fletxes verdes per a mapes adjacents.


METAR-TAF: